Boundary Airport


Codes: BYA/BYA
Name: Boundary Airport
City: Boundary
Country: United States
Elevation: 2940 ft.

Photos at Boundary Airport


   Photos courtesy of SpottingLog. You can add your own sightings and photos by signing up for a free trial today.



No photos found.

Weather at Boundary Airport


Time (UTC)DescriptionTempratureWindCloud coverageVisibilityPressureHumidity
21-Feb-2024 03:00Overcast Clouds-9°C4 mph, SE99%7434m1002hPa98%
21-Feb-2024 06:00Overcast Clouds-9°C4 mph, SE99%3397m1002hPa99%
21-Feb-2024 09:00Overcast Clouds-8°C4 mph, SE100%6147m1003hPa97%
21-Feb-2024 12:00Overcast Clouds-8°C4 mph, SE100%6541m1004hPa98%
21-Feb-2024 15:00Overcast Clouds-10°C4 mph, SE89%7358m1005hPa98%
21-Feb-2024 18:00Overcast Clouds-9°C4 mph, S93%3533m1005hPa98%
21-Feb-2024 21:00Overcast Clouds-5°C4 mph, SW100%6376m1006hPa94%
22-Feb-2024 00:00Overcast Clouds-4°C4 mph, SW100%10000m1006hPa89%
22-Feb-2024 03:00Scattered Clouds-10°C7 mph, S44%10000m1008hPa85%
22-Feb-2024 06:00Broken Clouds-11°C4 mph, SE72%10000m1007hPa95%
22-Feb-2024 09:00Overcast Clouds-11°C4 mph, SE91%10000m1006hPa97%
22-Feb-2024 12:00Overcast Clouds-13°C4 mph, SE96%2864m1005hPa99%
22-Feb-2024 15:00Overcast Clouds-12°C2 mph, SE100%2033m1002hPa99%
22-Feb-2024 18:00Overcast Clouds-12°C4 mph, SE99%600m1001hPa100%
22-Feb-2024 21:00Overcast Clouds-8°C2 mph, SE100%3613m999hPa96%
23-Feb-2024 00:00Overcast Clouds-7°C2 mph, SE99%10000m998hPa93%
23-Feb-2024 03:00Overcast Clouds-11°C4 mph, S93%4971m1001hPa98%
23-Feb-2024 06:00Overcast Clouds-12°C4 mph, SW97%10000m1002hPa95%
23-Feb-2024 09:00Overcast Clouds-16°C4 mph, SW99%3623m1007hPa99%
23-Feb-2024 12:00Overcast Clouds-17°C4 mph, SW100%4702m1009hPa99%
23-Feb-2024 15:00Overcast Clouds-16°C4 mph, SW99%10000m1011hPa98%
23-Feb-2024 18:00Overcast Clouds-15°C4 mph, SW100%10000m1011hPa97%
23-Feb-2024 21:00Broken Clouds-10°C4 mph, SW80%10000m1011hPa92%
24-Feb-2024 00:00Broken Clouds-10°C2 mph, SW78%10000m1011hPa92%
24-Feb-2024 03:00Scattered Clouds-19°C4 mph, S40%10000m1014hPa99%
24-Feb-2024 06:00Scattered Clouds-21°C4 mph, S39%10000m1014hPa99%
24-Feb-2024 09:00Broken Clouds-22°C4 mph, S58%10000m1014hPa99%
24-Feb-2024 12:00Broken Clouds-23°C2 mph, S57%10000m1014hPa98%
24-Feb-2024 15:00Overcast Clouds-24°C2 mph, SE88%10000m1013hPa99%
24-Feb-2024 18:00Overcast Clouds-23°C2 mph, SE91%8309m1012hPa100%
24-Feb-2024 21:00Overcast Clouds-15°C4 mph, NE97%7320m1008hPa97%
25-Feb-2024 00:00Overcast Clouds-14°C4 mph, N98%6690m1007hPa96%
25-Feb-2024 03:00Overcast Clouds-23°C2 mph, N96%4848m1012hPa100%
25-Feb-2024 06:00Overcast Clouds-26°C0 mph, N98%4395m1015hPa100%
25-Feb-2024 09:00Overcast Clouds-28°C2 mph, N99%4999m1018hPa100%
25-Feb-2024 12:00Overcast Clouds-30°C2 mph, N99%5129m1022hPa100%
25-Feb-2024 15:00Overcast Clouds-31°C0 mph, NW100%6056m1025hPa100%
25-Feb-2024 18:00Overcast Clouds-31°C2 mph, N97%8598m1028hPa100%
25-Feb-2024 21:00Broken Clouds-23°C4 mph, N70%9929m1027hPa96%
26-Feb-2024 00:00Broken Clouds-22°C4 mph, N81%9959m1027hPa94%